• Join FlightAware (Why Join?)
  • Login
  • US Flag 
11:02PM EDT


 

Airport Tracker/Info


-or-


 

Live Flight TrackerFlight Track Log ✈ LOG6852 ✈ 18-Jan-2014 ✈ EGPR / BRR - EGPF / GLA

Flight Track Log - Related Links

Times and Time Zones

All times are in EST time to prevent confusion due to time zone crossing. See the LOG6852 flight status page for this flight to view local times or setup timezone preferences in your user account.

Time Position Orientation Groundspeed Altitude Reporting Facility
EST Latitude Longitude Course Direction KTS MPH feet Rate Location/Type
08:40AM 56.6292 -6.5542 130° Southeast 1 1 9,500  Level FlightAware UK
08:40AM 56.6220 -6.5384 130° Southeast 1 1 9,500  Level FlightAware UK
08:41AM 56.6148 -6.5214 128° Southeast 1 1 9,500 120 Level FlightAware UK
08:41AM 56.6077 -6.5046 128° Southeast 1 1 9,600  Climbing FlightAware UK
08:41AM 56.6004 -6.4882 129° Southeast 1 1 9,500 -180 Descending FlightAware UK
08:42AM 56.5929 -6.4714 129° Southeast 1 1 9,500  Level FlightAware UK
08:42AM 56.5850 -6.4550 131° Southeast 1 1 9,500  Level FlightAware UK
08:42AM 56.5761 -6.4400 137° Southeast 1 1 9,500  Level FlightAware UK
08:42AM 56.5681 -6.4241 132° Southeast 1 1 9,500  Level FlightAware UK
08:43AM 56.5602 -6.4079 132° Southeast 1 1 9,500  Level FlightAware UK
08:43AM 56.5519 -6.3918 133° Southeast 1 1 9,500  Level FlightAware UK
08:43AM 56.5441 -6.3746 129° Southeast 1 1 9,500  Level FlightAware UK
08:44AM 56.5372 -6.3554 123° Southeast 1 1 9,500  Level FlightAware UK
08:44AM 56.5295 -6.3390 131° Southeast 1 1 9,500 -180 Level FlightAware UK
08:44AM 56.5219 -6.3226 130° Southeast 1 1 9,400  Descending FlightAware UK
08:45AM 56.5153 -6.3053 125° Southeast 1 1 9,500 300 Climbing FlightAware UK
08:45AM 56.5093 -6.2878 122° Southeast 1 1 9,600 120 Climbing FlightAware UK
08:45AM 56.5029 -6.2705 124° Southeast 1 1 9,600  Level FlightAware UK
08:45AM 56.4959 -6.2535 127° Southeast 1 1 9,600  Level FlightAware UK
08:46AM 56.4880 -6.2372 131° Southeast 1 1 9,600  Level FlightAware UK
08:46AM 56.4808 -6.2203 128° Southeast 1 1 9,600 -360 Level FlightAware UK
08:46AM 56.4737 -6.2032 127° Southeast 1 1 9,400 -180 Descending FlightAware UK
08:47AM 56.4667 -6.1863 127° Southeast 1 1 9,500 -180 Climbing FlightAware UK
08:47AM 56.4594 -6.1696 128° Southeast 1 1 9,300 -180 Descending FlightAware UK
08:47AM 56.4465 -6.1414 129° Southeast 1 1 9,400 240 Climbing FlightAware UK
08:48AM 56.4390 -6.1240 128° Southeast 1 1 9,500 -180 Climbing FlightAware UK
08:48AM 56.4314 -6.1069 129° Southeast 1 1 9,300  Descending FlightAware UK
08:48AM 56.4223 -6.0923 138° Southeast 1 1 9,500 300 Climbing FlightAware UK
08:49AM 56.4139 -6.0771 135° Southeast 1 1 9,500 120 Level FlightAware UK
08:49AM 56.4066 -6.0605 128° Southeast 1 1 9,600  Climbing FlightAware UK
08:49AM 56.3996 -6.0435 126° Southeast 1 1 9,500 -840 Descending FlightAware UK
08:50AM 56.3928 -6.0251 124° Southeast 1 1 9,100 -1,020 Descending FlightAware UK
08:50AM 56.3858 -6.0053 122° Southeast 1 1 8,900 -540 Descending FlightAware UK
08:50AM 56.3778 -5.9871 129° Southeast 1 1 8,800 -540 Descending FlightAware UK
08:50AM 56.3691 -5.9695 132° Southeast 1 1 8,600 -720 Descending FlightAware UK
08:51AM 56.3604 -5.9513 131° Southeast 1 1 8,400 -840 Descending FlightAware UK
08:51AM 56.3515 -5.9334 132° Southeast 1 1 8,100 -720 Descending FlightAware UK
08:51AM 56.3428 -5.9152 131° Southeast 1 1 8,000 -720 Descending FlightAware UK
08:52AM 56.3348 -5.8965 128° Southeast 1 1 7,700 -840 Descending FlightAware UK
08:52AM 56.3265 -5.8781 129° Southeast 1 1 7,500 -180 Descending FlightAware UK
08:52AM 56.3183 -5.8599 129° Southeast 1 1 7,600 -180 Climbing FlightAware UK
08:53AM 56.3108 -5.8438 130° Southeast 1 1 7,400 -180 Descending FlightAware UK
08:53AM 56.3038 -5.8268 126° Southeast 1 1 7,500 -180 Climbing FlightAware UK
08:53AM 56.2971 -5.8097 125° Southeast 1 1 7,300 -180 Descending FlightAware UK
08:53AM 56.2901 -5.7935 128° Southeast 1 1 7,400 240 Climbing FlightAware UK
08:54AM 56.2806 -5.7724 129° Southeast 1 1 7,500  Climbing FlightAware UK
08:54AM 56.2740 -5.7557 126° Southeast 1 1 7,400 -180 Descending FlightAware UK
08:54AM 56.2674 -5.7392 126° Southeast 1 1 7,400 120 Level FlightAware UK
08:55AM 56.2603 -5.7232 129° Southeast 1 1 7,500 120 Climbing FlightAware UK
08:55AM 56.2536 -5.7067 126° Southeast 1 1 7,500  Level FlightAware UK
08:55AM 56.2471 -5.6896 124° Southeast 1 1 7,500  Level FlightAware UK
08:56AM 56.2407 -5.6726 124° Southeast 1 1 7,500  Level FlightAware UK
08:56AM 56.2335 -5.6559 128° Southeast 1 1 7,500  Level FlightAware UK
08:56AM 56.2260 -5.6394 129° Southeast 1 1 7,500  Level FlightAware UK
08:57AM 56.2175 -5.6240 135° Southeast 1 1 7,500  Level FlightAware UK
08:57AM 56.2097 -5.6077 130° Southeast 1 1 7,500  Level FlightAware UK
08:57AM 56.2025 -5.5911 128° Southeast 1 1 7,500  Level FlightAware UK
08:57AM 56.1962 -5.5745 124° Southeast 1 1 7,500  Level FlightAware UK
08:58AM 56.1902 -5.5574 122° Southeast 1 1 7,500 -180 Level FlightAware UK
08:58AM 56.1834 -5.5408 126° Southeast 1 1 7,400 -180 Descending FlightAware UK
08:58AM 56.1744 -5.5187 126° Southeast 1 1 7,400 120 Level FlightAware UK
08:59AM 56.1679 -5.5020 125° Southeast 1 1 7,500 120 Climbing FlightAware UK
08:59AM 56.1627 -5.4846 118° Southeast 1 1 7,500 -180 Level FlightAware UK
08:59AM 56.1595 -5.4658 107° East 1 1 7,400  Descending FlightAware UK
09:00AM 56.1576 -5.4456 100° East 1 1 7,500 120 Climbing FlightAware UK
09:00AM 56.1552 -5.4259 102° East 1 1 7,500 -360 Level FlightAware UK
09:00AM 56.1498 -5.4086 119° Southeast 1 1 7,300  Descending FlightAware UK
09:01AM 56.1441 -5.3913 120° Southeast 1 1 7,500 120 Climbing FlightAware UK
09:01AM 56.1386 -5.3752 122° Southeast 1 1 7,400 -180 Descending FlightAware UK
09:01AM 56.1306 -5.3626 139° Southeast 1 1 7,400  Level FlightAware UK
09:01AM 56.1233 -5.3486 133° Southeast 1 1 7,400  Level FlightAware UK
09:02AM 56.1162 -5.3345 132° Southeast 1 1 7,400  Level FlightAware UK
09:02AM 56.1090 -5.3210 134° Southeast 1 1 7,400 -720 Level FlightAware UK
09:02AM 56.1023 -5.3061 129° Southeast 1 1 7,000 -840 Descending FlightAware UK
09:03AM 56.0950 -5.2902 130° Southeast 1 1 6,900 -360 Descending FlightAware UK
09:03AM 56.0881 -5.2740 127° Southeast 1 1 6,800  Descending FlightAware UK
09:03AM 56.0808 -5.2595 132° Southeast 1 1 6,900 -180 Climbing FlightAware UK
09:04AM 56.0733 -5.2451 133° Southeast 1 1 6,700 -420 Descending FlightAware UK
09:04AM 56.0627 -5.2209 128° Southeast 1 1 6,600  Descending FlightAware UK
09:04AM 56.0557 -5.2080 134° Southeast 1 1 6,700 120 Climbing FlightAware UK
09:05AM 56.0487 -5.1943 132° Southeast 1 1 6,700  Level FlightAware UK
09:05AM 56.0422 -5.1800 129° Southeast 1 1 6,700  Level FlightAware UK
09:05AM 56.0352 -5.1663 133° Southeast 1 1 6,700  Level FlightAware UK
09:06AM 56.0282 -5.1524 132° Southeast 1 1 6,700  Level FlightAware UK
09:06AM 56.0216 -5.1381 129° Southeast 1 1 6,700  Level FlightAware UK
09:06AM 56.0152 -5.1244 130° Southeast 1 1 6,700  Level FlightAware UK
09:06AM 56.0085 -5.1107 131° Southeast 1 1 6,700 -360 Level FlightAware UK
09:07AM 56.0020 -5.0968 130° Southeast 1 1 6,500 -720 Descending FlightAware UK
09:07AM 55.9942 -5.0819 133° Southeast 1 1 6,300 -540 Descending FlightAware UK
09:07AM 55.9868 -5.0672 132° Southeast 1 1 6,200 -540 Descending FlightAware UK
09:08AM 55.9791 -5.0518 132° Southeast 1 1 6,000 -720 Descending FlightAware UK
09:08AM 55.9712 -5.0371 134° Southeast 1 1 5,800 -540 Descending FlightAware UK
09:08AM 55.9630 -5.0226 135° Southeast 1 1 5,700  Descending FlightAware UK
09:09AM 55.9552 -5.0090 136° Southeast 1 1 5,800  Climbing FlightAware UK
09:09AM 55.9483 -4.9950 131° Southeast 1 1 5,700 -180 Descending FlightAware UK
09:09AM 55.9399 -4.9766 129° Southeast 1 1 5,700  Level FlightAware UK
09:10AM 55.9336 -4.9627 129° Southeast 1 1 5,700  Level FlightAware UK
09:10AM 55.9271 -4.9497 132° Southeast 1 1 5,700  Level FlightAware UK
09:10AM 55.9204 -4.9363 131° Southeast 1 1 5,700  Level FlightAware UK
09:11AM 55.9122 -4.9168 127° Southeast 1 1 5,700 -300 Level FlightAware UK
09:11AM 55.9059 -4.9009 125° Southeast 1 1 5,500 -180 Descending FlightAware UK
09:11AM 55.8992 -4.8859 129° Southeast 1 1 5,600 300 Climbing FlightAware UK
09:11AM 55.8907 -4.8770 150° Southeast 1 1 5,700 120 Climbing FlightAware UK
09:12AM 55.8824 -4.8676 147° Southeast 1 1 5,700  Level FlightAware UK
09:12AM 55.8739 -4.8585 149° Southeast 1 1 5,700 -360 Level FlightAware UK
09:12AM 55.8651 -4.8500 152° Southeast 1 1 5,500 -720 Descending FlightAware UK
09:13AM 55.8558 -4.8410 152° Southeast 1 1 5,300 -720 Descending FlightAware UK
09:13AM 55.8456 -4.8335 157° South 1 1 5,100 -720 Descending FlightAware UK
09:13AM 55.8360 -4.8252 154° Southeast 1 1 4,900 -540 Descending FlightAware UK
09:14AM 55.8271 -4.8176 154° Southeast 1 1 4,800 -720 Descending FlightAware UK
09:14AM 55.8186 -4.8098 153° Southeast 1 1 4,500 -840 Descending FlightAware UK
09:14AM 55.8101 -4.8024 154° Southeast 1 1 4,300 -540 Descending FlightAware UK
09:14AM 55.8015 -4.7940 151° Southeast 1 1 4,200 -720 Descending FlightAware UK
09:15AM 55.7933 -4.7845 147° Southeast 1 1 3,900 -720 Descending FlightAware UK
09:15AM 55.7850 -4.7734 143° Southeast 1 1 3,800 -180 Descending FlightAware UK
09:15AM 55.7784 -4.7606 133° Southeast 1 1 3,800  Level FlightAware UK
09:16AM 55.7806 -4.7417 78° East 1 1 3,800  Level FlightAware UK
09:16AM 55.7827 -4.7235 78° East 1 1 3,800  Level FlightAware UK
09:16AM 55.7828 -4.7040 90° East 1 1 3,800 -360 Level FlightAware UK
09:17AM 55.7833 -4.6848 88° East 1 1 3,600 -720 Descending FlightAware UK
09:17AM 55.7828 -4.6655 92° East 1 1 3,400 -540 Descending FlightAware UK
09:17AM 55.7826 -4.6459 91° East 1 1 3,300 -360 Descending FlightAware UK
09:17AM 55.7817 -4.6267 95° East 1 1 3,200 -480 Descending FlightAware UK
09:18AM 55.7819 -4.6016 89° East 1 1 3,000 -480 Descending FlightAware UK
09:18AM 55.7898 -4.5854 49° Northeast 1 1 2,900 -540 Descending FlightAware UK
09:18AM 55.7991 -4.5691 45° Northeast 1 1 2,700 -720 Descending FlightAware UK
09:19AM 55.8053 -4.5509 59° Northeast 1 1 2,500 -720 Descending FlightAware UK
09:19AM 55.8156 -4.5383 34° Northeast 1 1 2,300 -840 Descending FlightAware UK
09:19AM 55.8235 -4.5246 44° Northeast 1 1 2,000 -1,020 Descending FlightAware UK
09:20AM 55.8288 -4.5105 56° Northeast 1 1 1,700 -840 Descending FlightAware UK
09:20AM 55.8355 -4.5001 41° Northeast 1 1 1,500 -360 Descending FlightAware UK
09:20AM 55.8410 -4.4908 44° Northeast 1 1 1,500 -360 Level FlightAware UK
09:21AM 55.8455 -4.4826 45° Northeast 1 1 1,300 -540 Descending FlightAware UK
09:21AM 55.8500 -4.4742 47° Northeast 1 1 1,200 -540 Descending FlightAware UK
09:21AM 55.8542 -4.4662 47° Northeast 1 1 1,000 -540 Descending FlightAware UK
09:21AM 55.8585 -4.4580 47° Northeast 1 1 900 -360 Descending FlightAware UK
09:22AM 55.8629 -4.4497 47° Northeast 1 1 800 -360 Descending FlightAware UK
09:22AM 55.8672 -4.4415 47° Northeast 1 1 700  Descending FlightAware UK
09:22AM 55.8695 -4.4374 46° Northeast 1 1 800 120 Climbing FlightAware UK
09:23AM 55.8693 -4.4363 104° East 1 1 800  Level FlightAware UK
09:23AM 55.8684 -4.4362 175° South 1 1 800  Level FlightAware UK
09:25AM 55.8719 -4.4331 26° Northeast  Level Estimated
09:32AM 55.8719 -4.4331 29° Northeast  Level Estimated
09:33AM 55.8719 -4.4331 29° Northeast  Level Estimated